KMSV/MSV METAR and TAF weather

Enter ICAO airport designator
Station Type Date Time Source
KMSV METAR 2022/06/27 08:18 UTC NOAA

KMSV 270818Z AUTO 20008KT 10SM BKN018 BKN035 OVC050 21/18 A2995 RMK AO2 P0001


Station Type Date Time Source
KMSV Decoded METAR 2022/06/27 08:18 UTC NOAA

Monticello, Sullivan County International Airport, NY, United States (KMSV) 41-42N 074-48W
Jun 27, 2022 - 04:18 AM EDT / 2022.06.27 0818 UTC
Wind: from the SSW (200 degrees) at 9 MPH (8 KT):0
Visibility: 10 mile(s):0
Sky conditions: overcast
Precipitation last hour: 0.01 inches
Temperature: 69 F (21 C)
Dew Point: 64 F (18 C)
Relative Humidity: 82%
Pressure (altimeter): 29.95 in. Hg (1014 hPa)
ob: KMSV 270818Z AUTO 20008KT 10SM BKN018 BKN035 OVC050 21/18 A2995 RMK AO2 P0001
cycle: 8

Station Type Date Time Source
KMSV TAF UTC NOAA

Error!

Example: see airport list